Time;durP1;ratioP1;P1;durP2;ratioP2;P2;SDS_P1;SDS_P2;PMS_P1;PMS_P2;Temp;Humidity;BMP_temperature;BMP_pressure;BME280_temperature;BME280_humidity;BME280_pressure;Samples;Min_cycle;Max_cycle;Signal;HPM_P1;HPM_P2
2021/11/01 00:00:39;;;;;;;170.50;94.85;;;;;;;2.26;72.81;101737.03;1818706;77;20824;-76
2021/11/01 00:03:06;;;;;;;183.18;96.50;;;;;;;2.23;73.27;101732.74;1819106;79;22135;-75
2021/11/01 00:05:33;;;;;;;175.38;98.58;;;;;;;2.24;73.56;101735.73;1818732;79;21555;-76
2021/11/01 00:09:10;;;;;;;181.80;99.42;;;;;;;2.35;74.46;101725.30;1853380;76;23037;-77
2021/11/01 00:11:39;;;;;;;180.52;100.10;;;;;;;2.33;73.98;101730.08;1819830;77;20871;-76
2021/11/01 00:14:07;;;;;;;183.22;101.00;;;;;;;2.34;73.76;101728.78;1819883;78;21405;-75
2021/11/01 00:16:34;;;;;;;177.50;95.22;;;;;;;2.35;73.75;101730.48;1819684;78;20915;-75
2021/11/01 00:19:02;;;;;;;191.55;100.60;;;;;;;2.34;73.44;101731.37;1819769;78;20906;-75
2021/11/01 00:21:29;;;;;;;173.87;102.12;;;;;;;2.32;73.11;101726.64;1820736;78;20915;-76
2021/11/01 00:23:56;;;;;;;173.75;99.17;;;;;;;2.31;72.87;101730.52;1820201;78;20989;-76
2021/11/01 00:26:22;;;;;;;178.75;94.75;;;;;;;2.25;72.71;101725.83;1820106;78;21536;-75
2021/11/01 00:28:50;;;;;;;176.57;99.05;;;;;;;2.20;72.77;101722.84;1819512;77;20938;-77
2021/11/01 00:31:17;;;;;;;161.92;92.22;;;;;;;2.16;72.90;101722.46;1819997;78;20863;-74
2021/11/01 00:33:43;;;;;;;166.20;92.25;;;;;;;2.14;72.98;101722.91;1819695;78;21356;-76
2021/11/01 00:36:10;;;;;;;161.68;86.32;;;;;;;2.12;73.09;101720.31;1819991;78;20863;-75
2021/11/01 00:38:37;;;;;;;155.57;85.75;;;;;;;2.11;73.14;101721.61;1819855;78;21517;-74
2021/11/01 00:41:04;;;;;;;161.62;85.87;;;;;;;2.10;73.27;101722.05;1820042;77;20938;-75
2021/11/01 00:43:31;;;;;;;152.90;86.32;;;;;;;2.08;73.46;101724.64;1819795;77;20859;-75
2021/11/01 00:45:59;;;;;;;144.70;83.40;;;;;;;2.10;73.64;101713.00;1819757;77;21340;-75
2021/11/01 00:48:26;;;;;;;159.18;89.42;;;;;;;2.12;73.70;101715.14;1819518;78;20961;-75
2021/11/01 00:50:53;;;;;;;173.45;96.63;;;;;;;2.15;73.58;101705.20;1819998;78;21412;-76
2021/11/01 00:53:23;;;;;;;166.37;88.87;;;;;;;2.15;73.32;101709.94;1819766;78;21348;-75
2021/11/01 00:55:50;;;;;;;152.07;87.50;;;;;;;2.14;73.04;101711.27;1819868;78;20859;-74
2021/11/01 00:58:20;;;;;;;151.68;86.35;;;;;;;2.11;72.99;101706.94;1820028;77;20923;-75
2021/11/01 01:00:48;;;;;;;152.43;83.60;;;;;;;2.07;73.04;101703.53;1820085;78;20831;-75
2021/11/01 01:03:15;;;;;;;144.13;83.67;;;;;;;2.05;72.96;101698.80;1819699;78;21524;-75
2021/11/01 01:05:44;;;;;;;158.68;89.37;;;;;;;2.01;72.83;101694.96;1819477;78;20859;-75
2021/11/01 01:08:18;;;;;;;149.70;87.00;;;;;;;1.97;72.99;101699.73;1819601;78;20907;-75
2021/11/01 01:10:47;;;;;;;151.97;87.53;;;;;;;1.95;73.21;101692.41;1819606;78;21447;-75
2021/11/01 01:13:17;;;;;;;159.75;89.92;;;;;;;1.96;73.17;101695.00;1820034;78;20903;-76
2021/11/01 01:15:53;;;;;;;118.40;71.28;;;;;;;1.95;73.26;101682.91;1819916;78;21132;-75
2021/11/01 01:18:17;;;;;;;102.22;55.10;;;;;;;1.94;73.38;101688.13;1817843;77;20824;-73
2021/11/01 01:20:42;;;;;;;144.25;82.42;;;;;;;1.97;74.13;101688.09;1818996;79;20910;-74
2021/11/01 01:23:09;;;;;;;151.57;77.53;;;;;;;1.97;74.21;101682.91;1819614;79;20840;-74
2021/11/01 01:25:45;;;;;;;137.03;79.45;;;;;;;1.98;74.00;101683.33;1819132;79;20958;-76
2021/11/01 01:28:18;;;;;;;130.65;73.52;;;;;;;1.99;73.85;101681.17;1819323;78;21133;-74
2021/11/01 01:30:45;;;;;;;141.70;76.42;;;;;;;1.99;73.78;101677.30;1819158;79;20958;-76
2021/11/01 01:33:12;;;;;;;135.40;77.85;;;;;;;2.02;73.58;101680.73;1819441;79;21431;-76
2021/11/01 01:35:40;;;;;;;154.38;77.67;;;;;;;2.03;73.64;101675.97;1819181;77;20910;-77
2021/11/01 01:38:08;;;;;;;137.05;73.47;;;;;;;1.99;73.29;101672.97;1819583;79;20918;-77
2021/11/01 01:40:35;;;;;;;85.97;52.27;;;;;;;1.97;73.89;101678.59;1818842;79;21786;-75
2021/11/01 01:43:04;;;;;;;84.65;49.23;;;;;;;1.96;74.24;101676.89;1819330;77;20887;-76
2021/11/01 01:45:33;;;;;;;128.30;67.35;;;;;;;1.97;74.78;101675.16;1819104;78;20871;-76
2021/11/01 01:48:00;;;;;;;98.92;57.48;;;;;;;2.00;75.31;101674.70;1819395;79;20919;-75
2021/11/01 01:50:27;;;;;;;78.02;48.50;;;;;;;2.03;75.09;101677.70;1819115;79;21361;-75
2021/11/01 01:52:55;;;;;;;117.55;64.20;;;;;;;2.05;76.20;101677.26;1818703;78;21962;-76
2021/11/01 01:55:22;;;;;;;121.37;64.80;;;;;;;2.13;76.39;101668.98;1818676;79;20875;-74
2021/11/01 01:57:50;;;;;;;112.45;65.95;;;;;;;2.18;76.26;101669.82;1818974;78;21427;-74
2021/11/01 02:03:03;;;;;;;125.47;66.47;;;;;;;2.25;75.26;101672.77;1819197;79;20946;-75
2021/11/01 02:05:44;;;;;;;117.05;63.42;;;;;;;2.27;74.58;101672.77;1819390;79;21315;-76
2021/11/01 02:08:13;;;;;;;115.60;65.03;;;;;;;2.25;74.89;101670.19;1802996;78;20878;-76
2021/11/01 02:10:45;;;;;;;95.03;54.95;;;;;;;2.22;74.53;101662.88;1804961;79;20854;-75
2021/11/01 02:13:19;;;;;;;75.32;46.58;;;;;;;2.22;74.96;101662.46;1805064;79;20874;-77
2021/11/01 02:15:52;;;;;;;97.90;57.25;;;;;;;2.20;75.20;101656.84;1805298;79;21394;-75
2021/11/01 02:18:20;;;;;;;85.67;49.55;;;;;;;2.20;75.69;101654.26;1805042;79;21490;-75
2021/11/01 02:21:20;;;;;;;67.27;40.60;;;;;;;2.20;75.39;101660.73;1805076;79;20929;-74
2021/11/01 02:24:06;;;;;;;68.28;38.90;;;;;;;2.25;76.81;101658.98;1804800;79;21571;-75
2021/11/01 02:26:35;;;;;;;95.55;53.70;;;;;;;2.34;77.08;101660.19;1804828;79;21262;-75
2021/11/01 02:29:03;;;;;;;64.82;40.98;;;;;;;2.44;77.50;101664.39;1805186;78;20878;-75
2021/11/01 02:31:30;;;;;;;87.22;50.17;;;;;;;2.51;76.65;101659.16;1804946;79;21703;-74
2021/11/01 02:33:57;;;;;;;95.28;57.25;;;;;;;2.54;76.88;101656.11;1805131;79;20986;-75
2021/11/01 02:36:24;;;;;;;100.95;58.08;;;;;;;2.55;76.07;101659.55;1805186;79;21411;-74
2021/11/01 02:38:50;;;;;;;98.42;57.60;;;;;;;2.55;75.41;101656.97;1804973;79;20961;-75
2021/11/01 02:41:31;;;;;;;103.72;58.85;;;;;;;2.54;74.90;101668.21;1805134;79;21359;-75
2021/11/01 02:44:03;;;;;;;100.30;58.28;;;;;;;2.52;74.53;101655.27;1805115;79;21133;-76
2021/11/01 02:46:31;;;;;;;93.07;56.80;;;;;;;2.47;73.98;101657.91;1821967;78;20859;-74
2021/11/01 02:48:58;;;;;;;103.00;59.93;;;;;;;2.42;73.70;101657.10;1822024;78;21376;-75
2021/11/01 02:51:27;;;;;;;96.45;53.90;;;;;;;2.38;73.67;101658.00;1821955;78;20926;-75
2021/11/01 02:53:55;;;;;;;95.05;55.65;;;;;;;2.34;73.65;101658.89;1821939;78;20954;-74
2021/11/01 02:56:22;;;;;;;102.97;59.42;;;;;;;2.31;73.81;101656.31;1822221;77;21340;-75
2021/11/01 02:58:49;;;;;;;99.42;57.05;;;;;;;2.28;73.90;101658.50;1821759;78;21368;-76
2021/11/01 03:01:18;;;;;;;98.55;56.30;;;;;;;2.26;73.77;101660.23;1821933;78;20962;-75
2021/11/01 03:03:45;;;;;;;98.47;55.30;;;;;;;2.21;73.73;101650.37;1822153;77;20962;-76
2021/11/01 03:06:18;;;;;;;100.27;57.45;;;;;;;2.17;73.58;101652.56;1822134;78;20942;-75
2021/11/01 03:08:44;;;;;;;92.92;52.93;;;;;;;2.12;73.37;101650.91;1820425;78;21816;-76
2021/11/01 03:11:11;;;;;;;103.25;55.60;;;;;;;2.04;73.30;101647.92;1819280;77;20887;-76
2021/11/01 03:13:39;;;;;;;87.40;52.90;;;;;;;1.98;73.29;101642.81;1819007;79;21416;-75
2021/11/01 03:16:06;;;;;;;93.55;52.33;;;;;;;1.96;73.46;101638.09;1818879;78;20887;-75
2021/11/01 03:18:46;;;;;;;107.07;53.23;;;;;;;1.94;73.54;101635.09;1819011;78;20899;-74
2021/11/01 03:21:17;;;;;;;101.12;57.30;;;;;;;1.95;73.66;101630.33;1820117;79;21110;-75
2021/11/01 03:23:48;;;;;;;101.38;54.77;;;;;;;1.94;73.65;101629.92;1819354;78;20911;-75
2021/11/01 03:26:21;;;;;;;103.53;52.83;;;;;;;1.92;73.48;101631.22;1819258;79;20946;-75
2021/11/01 03:28:51;;;;;;;91.47;52.43;;;;;;;1.90;73.33;101630.81;1818770;79;21479;-75
2021/11/01 03:31:21;;;;;;;94.42;52.40;;;;;;;1.84;73.24;101627.38;1819149;78;20867;-75
2021/11/01 03:33:47;;;;;;;92.12;53.95;;;;;;;1.80;73.26;101623.13;1818911;79;21119;-75
2021/11/01 03:36:15;;;;;;;92.45;51.42;;;;;;;1.78;73.37;101617.52;1819192;77;20903;-75
2021/11/01 03:38:42;;;;;;;97.27;54.63;;;;;;;1.77;73.62;101619.70;1818819;78;20923;-74
2021/11/01 03:41:10;;;;;;;94.90;56.25;;;;;;;1.76;73.70;101611.09;1789926;79;20864;-75
2021/11/01 03:43:59;;;;;;;93.05;53.05;;;;;;;1.76;73.58;101611.09;1819142;78;20923;-75
2021/11/01 03:46:35;;;;;;;94.85;55.92;;;;;;;1.74;73.57;101606.80;1815540;79;21205;-75
2021/11/01 03:48:53;;;;;;;107.67;54.53;;;;;;;1.69;73.40;101606.84;1816239;79;20914;-75
2021/11/01 03:51:39;;;;;;;90.47;50.10;;;;;;;1.62;73.50;101606.02;1819186;77;20911;-75
2021/11/01 03:53:55;;;;;;;87.55;50.30;;;;;;;1.57;73.62;101606.47;1816513;79;20957;-75
2021/11/01 03:56:22;;;;;;;99.00;54.50;;;;;;;1.53;73.81;101607.34;1819302;79;21469;-75
2021/11/01 03:58:49;;;;;;;99.07;53.90;;;;;;;1.51;73.98;101603.06;1819043;79;21027;-74
2021/11/01 04:01:16;;;;;;;100.58;56.25;;;;;;;1.49;74.08;101603.51;1819091;77;21088;-74
2021/11/01 04:03:43;;;;;;;98.50;59.10;;;;;;;1.48;74.11;101601.36;1818937;78;21059;-74
2021/11/01 04:06:10;;;;;;;92.10;53.48;;;;;;;1.47;74.06;101596.20;1819268;78;20903;-75
2021/11/01 04:08:37;;;;;;;87.92;48.48;;;;;;;1.46;74.09;101592.76;1819622;78;20910;-75
2021/11/01 04:11:04;;;;;;;91.40;51.05;;;;;;;1.47;74.31;101594.91;1821760;78;21119;-75
2021/11/01 04:13:31;;;;;;;88.82;50.25;;;;;;;1.47;74.24;101596.20;1821808;78;20879;-75
2021/11/01 04:16:01;;;;;;;92.35;50.28;;;;;;;1.46;74.12;101595.34;1821819;78;20839;-76
2021/11/01 04:18:51;;;;;;;94.22;53.35;;;;;;;1.44;73.99;101594.49;1821434;78;20919;-76
2021/11/01 04:21:09;;;;;;;94.50;53.78;;;;;;;1.41;74.01;101607.01;1818376;78;20931;-74
2021/11/01 04:23:34;;;;;;;106.43;64.12;;;;;;;1.38;73.93;101597.99;1821450;78;21131;-75
2021/11/01 04:26:02;;;;;;;95.22;54.75;;;;;;;1.35;73.95;101593.27;1821747;78;20991;-76
2021/11/01 04:28:31;;;;;;;94.30;58.63;;;;;;;1.34;74.10;101596.73;1821710;78;21345;-76
2021/11/01 04:31:08;;;;;;;103.00;61.30;;;;;;;1.31;74.18;101592.45;1821764;78;21004;-75
2021/11/01 04:33:27;;;;;;;89.77;54.53;;;;;;;1.29;74.32;101589.01;1819316;78;20859;-75
2021/11/01 04:35:55;;;;;;;92.72;52.30;;;;;;;1.29;74.45;101594.59;1821741;78;21767;-74
2021/11/01 04:40:58;;;;;;;99.00;55.78;;;;;;;1.27;74.13;101596.31;1821935;78;20942;-74
2021/11/01 04:54:04;;;;;;;103.65;54.18;;;;;;;1.20;74.49;101597.67;1821816;78;21527;-75
2021/11/01 04:56:31;;;;;;;91.65;56.73;;;;;;;1.20;74.45;101593.80;1821941;78;20938;-75
2021/11/01 04:58:58;;;;;;;93.12;55.28;;;;;;;1.20;74.42;101591.62;1821876;77;21413;-74
2021/11/01 05:01:59;;;;;;;106.85;60.00;;;;;;;1.21;74.50;101598.52;1821895;78;21094;-75
2021/11/01 05:04:05;;;;;;;63.75;39.00;;;;;;;1.21;74.62;101590.33;1806302;78;20827;-75
2021/11/01 05:06:29;;;;;;;87.80;52.48;;;;;;;1.25;75.45;101597.64;1821414;78;20958;-74
2021/11/01 05:09:42;;;;;;;86.00;51.63;;;;;;;1.32;76.20;101578.64;1819192;77;21522;-76
2021/11/01 05:11:39;;;;;;;94.52;53.87;;;;;;;1.41;75.97;101579.02;1788561;79;20864;-75
2021/11/01 05:14:01;;;;;;;98.25;54.70;;;;;;;1.49;75.75;101577.25;1766450;81;21797;-74
2021/11/01 05:16:39;;;;;;;80.40;41.73;;;;;;;1.56;75.69;101569.87;1767734;81;21461;-75
2021/11/01 05:19:08;;;;;;;107.05;53.70;;;;;;;1.62;75.47;101571.12;1735936;82;20912;-76
2021/11/01 05:21:35;;;;;;;86.57;45.60;;;;;;;1.75;76.81;101574.45;1767829;81;21426;-75
2021/11/01 05:24:07;;;;;;;54.75;33.63;;;;;;;1.85;77.49;101573.51;1735948;82;21386;-76
2021/11/01 05:26:41;;;;;;;55.05;36.23;;;;;;;1.97;78.38;101571.24;1766555;81;21072;-74
2021/11/01 05:29:04;;;;;;;60.03;36.60;;;;;;;2.13;79.04;101573.24;1735723;82;20936;-75
2021/11/01 05:31:29;;;;;;;70.50;35.38;;;;;;;2.35;79.63;101571.74;1768022;81;20899;-76
2021/11/01 05:34:01;;;;;;;83.33;54.33;;;;;;;2.51;78.96;101574.58;1741641;82;20956;-75
2021/11/01 05:36:27;;;;;;;55.35;33.67;;;;;;;2.68;79.18;101579.13;1767809;81;20939;-82
2021/11/01 05:38:54;;;;;;;69.17;39.10;;;;;;;2.87;79.53;101582.36;1741652;82;21510;-81
2021/11/01 05:41:21;;;;;;;66.22;37.25;;;;;;;3.11;79.97;101577.72;1768112;81;20900;-83
2021/11/01 05:43:48;;;;;;;47.80;30.90;;;;;;;3.38;80.03;101573.91;1741685;81;20877;-83
2021/11/01 05:46:15;;;;;;;54.88;31.12;;;;;;;3.69;80.42;101574.28;1768046;81;21003;-81
2021/11/01 05:48:50;;;;;;;48.40;29.42;;;;;;;4.10;80.54;101579.66;1741786;81;20909;-82
2021/11/01 05:51:19;;;;;;;50.58;29.45;;;;;;;4.57;79.85;101578.75;1768126;81;21042;-83
2021/11/01 05:53:50;;;;;;;98.25;47.05;;;;;;;5.18;79.42;101576.64;1741563;82;20925;-84
2021/11/01 05:56:30;;;;;;;84.37;47.08;;;;;;;5.77;77.48;101583.08;1768496;81;20959;-84
2021/11/01 06:04:17;;;;;;;55.85;34.75;;;;;;;7.42;72.43;101578.92;1742018;82;21191;-82
2021/11/01 06:06:55;;;;;;;48.28;31.57;;;;;;;7.68;70.42;101578.09;1766720;81;20998;-86
2021/11/01 06:14:40;;;;;;;40.70;27.60;;;;;;;7.58;69.01;101577.13;1756627;81;20885;-83
2021/11/01 06:17:07;;;;;;;43.10;27.87;;;;;;;7.51;68.96;101583.00;1756887;80;22043;-85
2021/11/01 06:19:34;;;;;;;43.40;26.10;;;;;;;7.47;68.99;101582.72;1756865;81;20998;-82
2021/11/01 06:22:01;;;;;;;50.95;27.00;;;;;;;7.43;69.09;101578.49;1755971;81;21014;-86
2021/11/01 06:26:55;;;;;;;56.83;33.35;;;;;;;7.48;69.35;101576.58;1756810;80;20932;-86
2021/11/01 06:29:28;;;;;;;62.15;34.35;;;;;;;7.52;69.43;101566.45;1756705;81;21147;-86
2021/11/01 06:32:01;;;;;;;56.30;33.83;;;;;;;7.59;69.52;101571.02;1756479;81;20920;-86
2021/11/01 06:34:34;;;;;;;51.50;33.08;;;;;;;7.70;69.59;101575.45;1755478;81;20917;-85
2021/11/01 06:42:30;;;;;;;50.43;31.52;;;;;;;8.06;68.64;101570.73;1756886;81;21313;-84
2021/11/01 06:44:58;;;;;;;41.63;28.80;;;;;;;8.13;68.54;101571.84;1756226;81;21577;-82
2021/11/01 06:50:18;;;;;;;47.55;29.72;;;;;;;8.32;67.96;101562.46;1756555;81;20936;-82
2021/11/01 06:55:32;;;;;;;44.00;30.12;;;;;;;8.41;67.98;101562.16;1756407;81;21114;-82
2021/11/01 06:57:54;;;;;;;48.40;30.05;;;;;;;8.49;67.92;101557.95;1755504;81;21458;-81
2021/11/01 07:16:51;;;;;;;39.70;28.77;;;;;;;8.98;67.47;101560.08;1759042;81;21561;-84
2021/11/01 07:22:05;;;;;;;39.00;28.85;;;;;;;9.10;67.53;101553.05;1760480;81;21125;-80
2021/11/01 08:35:55;;;;;;;35.88;23.18;;;;;;;10.44;67.41;101506.03;1759026;81;21049;-74
2021/11/01 08:51:38;;;;;;;38.35;21.27;;;;;;;10.73;66.33;101496.36;1758929;81;21441;-74
2021/11/01 09:02:38;;;;;;;35.70;21.42;;;;;;;11.31;64.30;101497.13;1759092;81;20885;-76
2021/11/01 09:05:08;;;;;;;30.30;20.08;;;;;;;11.35;64.30;101489.48;1756307;81;21439;-75
2021/11/01 09:07:30;;;;;;;34.73;22.80;;;;;;;11.43;64.19;101484.72;1756311;81;21007;-76
2021/11/01 09:28:59;;;;;;;39.65;26.23;;;;;;;14.79;54.62;101433.16;1721824;81;20904;-75
2021/11/01 09:37:05;;;;;;;36.68;21.97;;;;;;;15.79;52.30;101423.05;1758681;80;21196;-75
2021/11/01 09:42:02;;;;;;;38.70;25.95;;;;;;;17.09;48.55;101417.65;1711524;81;21338;-75
2021/11/01 09:44:31;;;;;;;41.50;26.17;;;;;;;17.09;48.55;101417.65;1758737;81;20897;-74
2021/11/01 09:47:00;;;;;;;37.30;25.12;;;;;;;17.27;47.61;101419.39;1758764;80;21527;-77
2021/11/01 09:49:27;;;;;;;32.03;22.45;;;;;;;17.44;47.22;101418.62;1758500;81;21490;-77
2021/11/01 09:51:58;;;;;;;31.42;22.93;;;;;;;17.65;46.84;101413.45;1758786;81;21525;-79
2021/11/01 09:54:27;;;;;;;25.12;20.40;;;;;;;17.94;46.10;101412.09;1758643;81;21421;-77
2021/11/01 09:57:04;;;;;;;23.00;18.45;;;;;;;18.19;45.44;101405.67;1758671;80;20952;-77
2021/11/01 09:59:41;;;;;;;23.18;17.00;;;;;;;18.49;44.91;101406.82;1758656;81;20888;-77
2021/11/01 10:02:11;;;;;;;26.07;19.37;;;;;;;18.66;44.12;101399.31;1758995;81;21121;-83
2021/11/01 10:04:44;;;;;;;31.70;19.42;;;;;;;18.71;43.94;101394.45;1758537;81;20943;-79
2021/11/01 10:07:34;;;;;;;28.45;17.42;;;;;;;18.79;43.75;101389.39;1758795;80;20900;-78
2021/11/01 10:10:11;;;;;;;23.92;19.30;;;;;;;18.90;43.62;101383.16;1758602;81;21354;-78
2021/11/01 10:12:40;;;;;;;30.15;21.48;;;;;;;18.97;43.61;101375.06;1758663;81;20936;-79
2021/11/01 10:18:13;;;;;;;25.12;21.00;;;;;;;19.06;42.99;101357.00;1758949;81;20861;-78
2021/11/01 10:20:43;;;;;;;27.62;21.12;;;;;;;19.09;42.61;101357.23;1759044;81;20900;-76
2021/11/01 10:23:25;;;;;;;33.58;20.62;;;;;;;18.92;43.01;101344.88;1758891;80;21492;-78
2021/11/01 10:26:11;;;;;;;33.05;18.80;;;;;;;18.84;43.11;101345.50;1758683;80;20881;-77
2021/11/01 10:28:39;;;;;;;27.67;18.85;;;;;;;18.79;42.84;101355.69;1763842;80;21144;-78
2021/11/01 10:31:23;;;;;;;29.80;22.55;;;;;;;18.55;43.42;101351.87;1758573;80;20979;-74
2021/11/01 10:33:52;;;;;;;;;;;;;;;18.51;43.66;101345.61;1761301;80;20882;-75
2021/11/01 10:36:29;;;;;;;34.20;22.42;;;;;;;18.49;43.54;101343.07;1757221;81;20100;-75
2021/11/01 10:39:06;;;;;;;30.72;20.32;;;;;;;18.47;43.59;101330.89;1758834;80;20971;-77
2021/11/01 11:14:28;;;;;;;33.67;22.27;;;;;;;15.23;50.24;101305.20;1811156;79;21033;-76
2021/11/01 11:19:42;;;;;;;29.55;20.52;;;;;;;14.77;51.82;101295.11;1811085;79;21412;-74
2021/11/01 11:25:19;;;;;;;35.60;23.90;;;;;;;14.36;52.85;101293.39;1811071;79;20946;-76
2021/11/01 11:27:34;;;;;;;31.42;19.82;;;;;;;14.14;53.60;101279.42;1796020;79;20887;-76
2021/11/01 11:43:58;;;;;;;23.67;15.83;;;;;;;13.98;54.99;101272.09;1762853;81;21398;-75
2021/11/01 11:49:17;;;;;;;32.53;21.95;;;;;;;13.87;55.28;101264.86;1762940;81;21136;-77
2021/11/01 11:51:59;;;;;;;24.00;18.57;;;;;;;13.81;55.36;101274.02;1762960;81;20928;-75
2021/11/01 11:54:49;;;;;;;35.98;22.55;;;;;;;13.78;55.55;101270.72;1762956;81;20932;-76
2021/11/01 11:57:30;;;;;;;23.92;16.30;;;;;;;13.81;55.54;101269.23;1763292;80;20960;-75
2021/11/01 11:59:59;;;;;;;23.47;16.87;;;;;;;13.85;55.43;101264.11;1741490;81;20972;-77
2021/11/01 12:02:41;;;;;;;20.10;16.65;;;;;;;13.83;55.56;101262.91;1762889;81;21563;-77
2021/11/01 12:05:28;;;;;;;31.12;19.35;;;;;;;13.88;55.60;101271.84;1761640;81;20928;-74
2021/11/01 12:08:15;;;;;;;27.67;18.25;;;;;;;13.95;55.40;101273.63;1762733;80;21370;-76
2021/11/01 12:19:00;;;;;;;30.35;18.98;;;;;;;13.76;55.73;101262.06;1775513;80;20975;-75
2021/11/01 12:21:27;;;;;;;27.93;18.65;;;;;;;13.73;55.82;101258.31;1775702;80;20913;-76
2021/11/01 12:26:24;;;;;;;29.10;19.32;;;;;;;13.71;56.13;101257.08;1835226;76;22371;-75
2021/11/01 12:28:55;;;;;;;27.58;19.42;;;;;;;13.67;56.19;101268.31;1798588;79;21323;-76
2021/11/01 12:31:23;;;;;;;29.40;19.90;;;;;;;13.68;56.22;101266.52;1810872;77;21136;-76
2021/11/01 12:34:05;;;;;;;31.85;22.50;;;;;;;13.66;56.27;101261.80;1806298;77;21283;-75
2021/11/01 12:39:10;;;;;;;34.73;23.32;;;;;;;13.58;56.42;101259.63;1802254;77;21487;-75
2021/11/01 12:41:53;;;;;;;40.98;26.12;;;;;;;13.53;56.54;101261.72;1812395;78;20821;-74
2021/11/01 12:57:40;;;;;;;48.85;30.40;;;;;;;13.09;57.89;101251.23;1805081;77;21512;-76
2021/11/01 13:00:09;;;;;;;45.90;30.57;;;;;;;13.01;58.07;101254.34;1785394;77;21334;-75
2021/11/01 13:02:39;;;;;;;46.92;32.85;;;;;;;12.94;58.25;101251.23;1810671;78;20833;-76
2021/11/01 13:05:21;;;;;;;47.73;32.53;;;;;;;12.88;58.51;101252.07;1804977;77;21374;-75
2021/11/01 13:07:54;;;;;;;56.92;32.75;;;;;;;12.79;58.77;101242.45;1793881;77;20833;-75
2021/11/01 13:10:34;;;;;;;47.53;33.08;;;;;;;12.73;58.96;101243.29;1811091;79;21131;-74
2021/11/01 13:18:40;;;;;;;58.05;32.90;;;;;;;12.51;59.69;101222.64;1807512;77;21501;-76
2021/11/01 13:21:13;;;;;;;51.65;33.40;;;;;;;12.46;59.85;101211.55;1777239;79;21400;-75
2021/11/01 13:23:51;;;;;;;52.95;32.20;;;;;;;12.40;59.99;101213.59;1779348;80;21112;-74
2021/11/01 13:26:51;;;;;;;53.20;31.68;;;;;;;12.36;60.12;101213.41;1755282;80;21496;-75
2021/11/01 13:40:05;;;;;;;55.95;32.20;;;;;;;12.05;61.16;101206.87;1804466;77;20967;-74
2021/11/01 13:42:33;;;;;;;49.77;33.67;;;;;;;11.96;61.36;101205.17;1810400;77;21493;-74
2021/11/01 13:45:13;;;;;;;56.05;33.63;;;;;;;11.88;61.61;101206.06;1806443;77;21428;-75
2021/11/01 13:47:56;;;;;;;50.73;31.37;;;;;;;11.81;61.76;101208.16;1793036;78;20911;-73
2021/11/01 13:50:27;;;;;;;57.93;32.10;;;;;;;11.77;62.07;101207.09;1804938;79;21031;-73
2021/11/01 13:53:21;;;;;;;58.05;32.83;;;;;;;11.73;62.30;101205.09;1810107;78;20994;-74
2021/11/01 14:01:12;;;;;;;55.92;34.38;;;;;;;11.58;62.92;101214.69;1785623;77;21277;-76
2021/11/01 14:12:14;;;;;;;57.30;35.33;;;;;;;11.43;63.37;101196.27;1799036;77;21465;-74
2021/11/01 14:14:53;;;;;;;59.45;35.68;;;;;;;11.36;63.54;101190.50;1807767;77;21074;-75
2021/11/01 14:17:34;;;;;;;68.42;38.60;;;;;;;11.30;63.90;101191.69;1795805;77;20892;-77
2021/11/01 14:33:20;;;;;;;57.65;36.60;;;;;;;11.15;64.92;101195.97;1741297;82;21441;-77
2021/11/01 14:55:38;;;;;;;52.60;34.13;;;;;;;11.10;65.13;101163.88;1809604;77;20908;-75
2021/11/01 15:14:17;;;;;;;66.85;38.20;;;;;;;10.98;65.69;101151.40;1798211;77;20885;-76
2021/11/01 15:19:27;;;;;;;79.95;41.20;;;;;;;10.91;65.70;101159.22;1794615;77;21407;-76
2021/11/01 15:37:08;;;;;;;69.27;40.48;;;;;;;10.61;66.79;101180.88;1750806;78;21093;-74
2021/11/01 16:20:05;;;;;;;115.08;63.73;;;;;;;9.95;67.93;101173.17;1784284;77;21022;-79
2021/11/01 16:22:32;;;;;;;121.70;69.58;;;;;;;9.93;67.41;101172.86;1782615;80;21392;-77
2021/11/01 16:25:00;;;;;;;143.32;74.03;;;;;;;9.89;67.56;101171.30;1774964;80;20951;-79
2021/11/01 16:27:28;;;;;;;159.65;77.65;;;;;;;9.84;67.09;101183.31;1771938;79;21373;-78
2021/11/01 16:32:27;;;;;;;236.95;127.70;;;;;;;9.73;66.81;101178.59;1740973;82;20924;-78
2021/11/01 16:34:57;;;;;;;419.30;230.83;;;;;;;9.68;66.83;101178.44;1744895;79;20968;-77
2021/11/01 16:37:39;;;;;;;308.25;176.63;;;;;;;9.61;66.86;101179.19;1789934;77;20943;-78
2021/11/01 16:40:09;;;;;;;456.00;275.87;;;;;;;9.55;67.04;101179.46;1808536;78;20849;-80
2021/11/01 16:42:37;;;;;;;469.25;273.62;;;;;;;9.51;67.65;101170.05;1776557;79;21188;-78
2021/11/01 16:45:14;;;;;;;467.98;271.62;;;;;;;9.47;67.42;101165.87;1775602;80;21358;-77
2021/11/01 16:47:42;;;;;;;119.42;74.10;;;;;;;9.42;67.44;101167.39;1762005;79;20920;-77
2021/11/01 16:50:11;;;;;;;80.07;49.73;;;;;;;9.36;68.06;101162.47;1786239;78;21016;-77
2021/11/01 16:52:39;;;;;;;131.78;75.42;;;;;;;9.32;68.42;101160.91;1788044;77;21412;-79
2021/11/01 16:55:17;;;;;;;84.25;48.25;;;;;;;9.28;68.57;101153.64;1793982;78;21120;-77
2021/11/01 16:57:45;;;;;;;52.55;37.88;;;;;;;9.32;68.86;101155.20;1770720;80;21018;-74
2021/11/01 17:00:59;;;;;;;56.80;39.30;;;;;;;9.38;69.46;101161.91;1760271;79;20936;-78
2021/11/01 17:03:00;;;;;;;65.28;40.75;;;;;;;9.48;69.49;101155.34;1756612;77;20987;-78
2021/11/01 17:05:29;;;;;;;94.10;57.78;;;;;;;9.59;69.38;101155.30;1794657;77;21007;-75
2021/11/01 17:26:39;;;;;;;67.90;45.40;;;;;;;10.01;67.42;101135.35;1808393;78;20962;-76
2021/11/01 18:40:52;;;;;;;59.63;37.40;;;;;;;9.14;67.79;101086.72;1810226;79;21409;-78
2021/11/01 18:46:11;;;;;;;57.27;37.90;;;;;;;9.12;67.96;101092.01;1797766;77;21315;-79
2021/11/01 18:51:09;;;;;;;60.38;39.75;;;;;;;9.07;68.15;101084.84;1772256;80;20876;-79
2021/11/01 18:53:42;;;;;;;61.05;39.98;;;;;;;9.06;68.21;101084.91;1765572;79;21469;-78
2021/11/01 18:56:14;;;;;;;58.68;40.80;;;;;;;9.05;68.25;101079.30;1736443;80;21170;-80
2021/11/01 18:58:42;;;;;;;71.47;41.08;;;;;;;9.04;68.26;101078.89;1785599;80;20990;-76
2021/11/01 19:01:11;;;;;;;62.20;38.67;;;;;;;9.02;68.28;101076.34;1780990;79;20977;-79
2021/11/01 19:03:43;;;;;;;63.10;40.67;;;;;;;9.02;68.30;101071.11;1779984;80;20911;-82
2021/11/01 19:12:21;;;;;;;67.87;41.77;;;;;;;9.04;68.41;101068.43;1801640;77;20944;-78
2021/11/01 20:04:36;;;;;;;71.70;43.83;;;;;;;9.05;69.38;101060.98;1801547;77;21280;-79
2021/11/01 21:26:58;;;;;;;75.57;46.73;;;;;;;8.64;72.37;100999.66;1809800;77;21115;-78
2021/11/01 21:29:29;;;;;;;70.67;45.52;;;;;;;8.66;72.50;100993.90;1789237;77;20963;-79
2021/11/01 21:31:56;;;;;;;65.75;46.68;;;;;;;8.67;72.52;100981.20;1810443;77;20837;-79
2021/11/01 21:34:33;;;;;;;74.10;49.00;;;;;;;8.63;72.66;100976.59;1810338;79;20912;-78
2021/11/01 21:37:00;;;;;;;81.92;51.10;;;;;;;8.63;72.88;100977.06;1792576;77;20960;-78
2021/11/01 21:39:27;;;;;;;79.47;51.55;;;;;;;8.65;72.88;100975.22;1773764;80;21424;-77
2021/11/01 21:41:54;;;;;;;77.55;49.65;;;;;;;8.67;72.90;100966.81;1764429;80;20892;-76
2021/11/01 21:44:21;;;;;;;80.62;48.48;;;;;;;8.67;72.77;100965.08;1785954;77;20981;-78
2021/11/01 21:46:48;;;;;;;77.47;49.15;;;;;;;8.65;72.78;100961.69;1798734;78;20908;-79
2021/11/01 21:49:15;;;;;;;72.08;45.55;;;;;;;8.64;72.94;100963.05;1779036;80;20920;-78
2021/11/01 21:51:43;;;;;;;71.35;43.75;;;;;;;8.64;72.95;100961.75;1779572;80;21030;-77
2021/11/01 21:54:26;;;;;;;69.22;43.85;;;;;;;8.66;72.96;100958.14;1759474;79;20999;-78
2021/11/01 21:56:52;;;;;;;71.72;44.23;;;;;;;8.66;72.88;100959.91;1738940;81;21353;-79
2021/11/01 22:10:34;;;;;;;67.32;44.60;;;;;;;8.81;73.05;100935.66;1801430;79;20884;-80
2021/11/01 22:20:48;;;;;;;73.15;46.33;;;;;;;8.68;73.12;100916.24;1810462;78;20841;-76
2021/11/01 22:26:19;;;;;;;67.37;43.90;;;;;;;8.58;73.54;100911.05;1810211;78;20872;-77